Time;durP1;ratioP1;P1;durP2;ratioP2;P2;SDS_P1;SDS_P2;PMS_P1;PMS_P2;Temp;Humidity;BMP_temperature;BMP_pressure;BME280_temperature;BME280_humidity;BME280_pressure;Samples;Min_cycle;Max_cycle;Signal;HPM_P1;HPM_P2
2023/03/14 00:00:15;;;;;;;25.20;10.73;;;4.10;99.90;;;;;;4973314;28;20062;-82
2023/03/14 00:02:41;;;;;;;29.40;13.23;;;4.10;99.90;;;;;;4973123;28;20418;-82
2023/03/14 00:05:08;;;;;;;50.45;23.63;;;4.00;99.90;;;;;;4973315;28;20019;-80
2023/03/14 00:07:36;;;;;;;61.45;31.50;;;4.00;99.90;;;;;;4974187;28;20396;-80
2023/03/14 00:10:09;;;;;;;72.75;34.42;;;3.90;99.90;;;;;;4972490;28;20484;-80
2023/03/14 00:12:35;;;;;;;60.15;31.20;;;3.90;99.90;;;;;;4974471;28;20027;-80
2023/03/14 00:15:03;;;;;;;35.65;16.80;;;3.90;99.90;;;;;;4973088;28;20053;-83
2023/03/14 00:17:29;;;;;;;21.85;12.95;;;3.90;99.90;;;;;;4972522;28;20105;-83
2023/03/14 00:19:55;;;;;;;15.25;8.68;;;3.90;99.90;;;;;;4973101;28;20034;-82
2023/03/14 00:22:21;;;;;;;15.75;8.77;;;3.90;99.90;;;;;;4974206;28;20022;-83
2023/03/14 00:24:47;;;;;;;19.65;12.18;;;4.00;99.90;;;;;;4974297;28;20022;-81
2023/03/14 00:27:13;;;;;;;59.00;28.50;;;4.00;99.90;;;;;;4972773;28;20117;-81
2023/03/14 00:29:39;;;;;;;114.03;55.20;;;4.00;99.90;;;;;;4973254;28;20065;-81
2023/03/14 00:32:04;;;;;;;105.43;48.38;;;3.90;99.90;;;;;;4972918;28;20508;-82
2023/03/14 00:34:31;;;;;;;69.85;30.83;;;3.90;99.90;;;;;;4973253;28;20078;-80
2023/03/14 00:36:57;;;;;;;50.55;24.85;;;3.80;99.90;;;;;;4973053;28;20384;-82
2023/03/14 00:39:22;;;;;;;33.97;17.35;;;3.90;99.90;;;;;;4973017;28;20019;-80
2023/03/14 00:41:48;;;;;;;23.90;10.90;;;4.00;99.90;;;;;;4974226;28;20027;-80
2023/03/14 00:44:14;;;;;;;52.90;20.48;;;4.10;99.90;;;;;;4972936;28;20165;-81
2023/03/14 00:46:39;;;;;;;27.02;11.73;;;4.30;99.90;;;;;;4956576;28;20122;-80
2023/03/14 00:49:05;;;;;;;26.92;10.60;;;4.30;99.90;;;;;;4974094;28;20070;-80
2023/03/14 00:51:30;;;;;;;40.97;17.10;;;4.40;99.90;;;;;;4972843;28;20488;-81
2023/03/14 00:53:56;;;;;;;30.15;13.02;;;4.50;99.90;;;;;;4972746;28;20030;-80
2023/03/14 00:56:22;;;;;;;24.52;9.93;;;4.60;99.90;;;;;;4972949;28;20033;-80
2023/03/14 00:58:47;;;;;;;19.67;8.50;;;4.60;99.90;;;;;;4974253;28;20023;-78
2023/03/14 01:01:16;;;;;;;19.17;8.52;;;4.60;99.90;;;;;;4973914;28;20365;-78
2023/03/14 01:03:42;;;;;;;21.23;8.50;;;4.70;99.90;;;;;;4974028;28;20029;-78
2023/03/14 01:06:11;;;;;;;11.50;7.15;;;4.70;99.90;;;;;;4974023;28;20117;-79
2023/03/14 01:08:37;;;;;;;11.77;5.28;;;4.80;99.90;;;;;;4972681;28;20034;-78
2023/03/14 01:11:12;;;;;;;25.88;12.07;;;4.90;99.90;;;;;;4973972;28;20031;-77
2023/03/14 01:13:37;;;;;;;24.58;10.20;;;4.80;99.90;;;;;;4973907;28;20050;-78
2023/03/14 01:16:06;;;;;;;23.40;12.25;;;4.80;99.90;;;;;;4972688;28;20062;-83
2023/03/14 01:18:33;;;;;;;57.80;30.70;;;4.80;99.90;;;;;;4972774;28;20106;-81
2023/03/14 01:20:58;;;;;;;41.83;17.10;;;4.60;99.90;;;;;;4976152;28;20027;-80
2023/03/14 01:23:24;;;;;;;36.10;17.48;;;4.50;99.90;;;;;;4976319;28;20034;-80
2023/03/14 01:25:50;;;;;;;40.90;20.08;;;4.40;99.90;;;;;;4977281;28;20034;-81
2023/03/14 01:28:16;;;;;;;36.42;19.55;;;4.30;99.90;;;;;;4977243;28;20031;-80
2023/03/14 01:30:41;;;;;;;28.48;15.82;;;4.20;99.90;;;;;;4976129;28;20071;-80
2023/03/14 01:33:07;;;;;;;26.38;12.52;;;4.20;99.90;;;;;;4976241;28;20373;-80
2023/03/14 01:35:33;;;;;;;28.52;14.00;;;4.10;99.90;;;;;;4976917;28;20031;-79
2023/03/14 01:37:58;;;;;;;29.70;16.83;;;4.10;99.90;;;;;;4977174;28;20019;-80
2023/03/14 01:40:24;;;;;;;28.67;16.25;;;4.00;99.90;;;;;;4975882;28;20027;-82
2023/03/14 01:42:57;;;;;;;53.30;31.30;;;3.90;99.90;;;;;;4977021;28;20065;-80
2023/03/14 01:46:00;;;;;;;49.78;28.48;;;3.80;99.90;;;;;;4976950;28;20026;-82
2023/03/14 01:48:31;;;;;;;73.38;40.10;;;3.70;99.90;;;;;;4977171;28;20059;-80
2023/03/14 01:50:59;;;;;;;34.75;21.08;;;3.70;99.90;;;;;;4975931;28;20046;-80
2023/03/14 01:53:25;;;;;;;49.88;20.35;;;3.70;99.90;;;;;;4976879;28;20023;-80
2023/03/14 01:55:53;;;;;;;35.20;20.33;;;3.70;99.90;;;;;;4975638;28;20027;-80
2023/03/14 01:58:20;;;;;;;33.58;19.85;;;3.60;99.90;;;;;;4976726;28;20433;-82
2023/03/14 02:00:46;;;;;;;18.10;10.18;;;3.60;99.90;;;;;;4975329;28;20027;-80
2023/03/14 02:03:16;;;;;;;12.90;6.97;;;3.80;99.90;;;;;;4976764;28;20058;-82
2023/03/14 02:05:43;;;;;;;9.90;5.38;;;4.20;99.90;;;;;;4976579;28;20022;-82
2023/03/14 02:08:14;;;;;;;6.93;4.55;;;4.60;99.90;;;;;;4976872;28;20057;-81
2023/03/14 02:10:44;;;;;;;7.10;4.30;;;4.90;99.90;;;;;;4976625;28;20038;-83
2023/03/14 02:13:11;;;;;;;6.93;4.53;;;5.00;99.90;;;;;;4976004;28;20034;-83
2023/03/14 02:15:37;;;;;;;9.32;4.25;;;5.10;99.20;;;;;;4975108;28;20031;-85
2023/03/14 02:18:05;;;;;;;7.53;5.00;;;5.10;98.10;;;;;;4974974;28;20018;-85
2023/03/14 02:20:37;;;;;;;13.20;8.13;;;5.10;96.90;;;;;;4974920;28;20019;-83
2023/03/14 02:23:03;;;;;;;9.30;6.65;;;5.00;95.60;;;;;;4976957;28;20058;-82
2023/03/14 02:25:53;;;;;;;8.80;6.63;;;4.90;95.10;;;;;;4995533;28;20022;-82
2023/03/14 02:28:20;;;;;;;15.13;8.75;;;5.00;96.30;;;;;;4995853;28;20034;-82
2023/03/14 02:30:46;;;;;;;12.65;7.85;;;5.00;96.10;;;;;;4994502;28;20108;-82
2023/03/14 02:33:15;;;;;;;8.35;5.75;;;4.90;96.20;;;;;;4993977;28;20029;-82
2023/03/14 02:35:57;;;;;;;10.70;5.28;;;4.90;96.70;;;;;;4993971;28;20401;-82
2023/03/14 02:38:31;;;;;;;10.67;4.70;;;4.90;96.80;;;;;;4995372;28;20499;-82
2023/03/14 02:40:57;;;;;;;8.32;4.22;;;4.90;97.10;;;;;;4995480;28;20281;-82
2023/03/14 02:43:22;;;;;;;10.38;4.65;;;4.90;96.90;;;;;;4994202;28;20416;-82
2023/03/14 02:45:50;;;;;;;10.88;5.50;;;4.90;97.00;;;;;;4993966;28;20035;-82
2023/03/14 02:48:19;;;;;;;9.75;5.18;;;4.90;96.20;;;;;;4995170;28;20100;-81
2023/03/14 02:50:51;;;;;;;13.18;7.25;;;4.70;94.80;;;;;;4994958;28;20057;-82
2023/03/14 02:53:21;;;;;;;16.48;9.15;;;4.60;95.30;;;;;;4994117;28;20014;-82
2023/03/14 02:55:48;;;;;;;17.45;9.02;;;4.50;94.80;;;;;;4993996;28;20019;-82
2023/03/14 02:58:14;;;;;;;15.85;9.30;;;4.30;95.40;;;;;;4994832;28;20069;-81
2023/03/14 03:00:40;;;;;;;18.55;10.73;;;4.20;97.50;;;;;;4993703;28;20022;-81
2023/03/14 03:03:06;;;;;;;20.95;14.55;;;4.10;99.70;;;;;;4993971;28;20100;-82
2023/03/14 03:05:32;;;;;;;27.30;17.65;;;4.00;99.90;;;;;;4994596;28;20041;-81
2023/03/14 03:07:58;;;;;;;18.45;8.80;;;4.00;99.90;;;;;;4994994;28;20134;-81
2023/03/14 03:10:24;;;;;;;10.70;6.90;;;4.00;99.90;;;;;;4994670;28;20508;-81
2023/03/14 03:12:51;;;;;;;8.10;5.90;;;3.90;99.90;;;;;;4993787;28;20086;-85
2023/03/14 03:15:17;;;;;;;9.15;5.03;;;3.90;99.90;;;;;;4995001;28;20548;-82
2023/03/14 03:17:42;;;;;;;23.58;10.18;;;3.80;99.90;;;;;;4994718;28;20023;-82
2023/03/14 03:20:09;;;;;;;15.52;8.43;;;3.70;99.90;;;;;;4995087;28;20034;-82
2023/03/14 03:22:36;;;;;;;10.48;5.00;;;3.70;99.90;;;;;;4994635;28;20029;-83
2023/03/14 03:25:03;;;;;;;6.72;4.53;;;3.80;99.90;;;;;;4994327;28;20022;-84
2023/03/14 03:27:31;;;;;;;10.93;5.65;;;3.70;99.90;;;;;;4992983;28;20026;-82
2023/03/14 03:29:57;;;;;;;7.22;4.68;;;3.80;99.90;;;;;;4994392;28;20121;-83
2023/03/14 03:32:23;;;;;;;7.93;4.80;;;3.80;99.90;;;;;;4994459;28;20050;-82
2023/03/14 03:34:49;;;;;;;11.80;8.10;;;3.80;99.90;;;;;;4993386;28;20494;-82
2023/03/14 03:37:14;;;;;;;12.45;7.85;;;3.70;99.90;;;;;;4994382;28;20033;-82
2023/03/14 03:39:40;;;;;;;9.32;6.22;;;3.60;99.90;;;;;;4994344;28;20419;-82
2023/03/14 03:42:05;;;;;;;9.00;5.85;;;3.60;99.90;;;;;;4994259;28;20026;-81
2023/03/14 03:44:31;;;;;;;6.40;4.20;;;3.50;99.90;;;;;;4993650;28;20072;-82
2023/03/14 03:46:57;;;;;;;9.30;5.13;;;3.50;99.90;;;;;;4992902;28;20511;-80
2023/03/14 03:49:22;;;;;;;8.30;6.07;;;3.50;99.90;;;;;;4993905;28;20113;-82
2023/03/14 03:51:48;;;;;;;6.05;5.07;;;3.40;99.90;;;;;;4994016;28;20916;-82
2023/03/14 03:54:14;;;;;;;8.65;6.10;;;3.40;99.90;;;;;;4993006;28;20025;-81
2023/03/14 03:56:39;;;;;;;13.88;7.30;;;3.40;99.90;;;;;;4992485;28;20145;-84
2023/03/14 03:59:05;;;;;;;14.10;8.40;;;3.20;99.90;;;;;;4994192;28;20460;-83
2023/03/14 04:01:31;;;;;;;16.08;11.13;;;3.20;99.90;;;;;;4992746;28;20444;-85
2023/03/14 04:03:57;;;;;;;13.45;8.65;;;3.00;99.90;;;;;;4992586;28;20380;-83
2023/03/14 04:06:22;;;;;;;15.77;10.25;;;2.90;99.90;;;;;;4993556;28;20476;-85
2023/03/14 04:08:48;;;;;;;13.70;8.68;;;2.70;99.90;;;;;;4992184;28;20105;-82
2023/03/14 04:11:14;;;;;;;11.52;7.85;;;2.70;99.90;;;;;;4993492;28;20042;-84
2023/03/14 04:13:39;;;;;;;12.07;7.15;;;2.70;99.90;;;;;;4993486;28;20054;-80
2023/03/14 04:16:15;;;;;;;15.65;8.18;;;2.80;99.90;;;;;;4993728;28;20472;-80
2023/03/14 04:18:41;;;;;;;11.88;8.18;;;2.70;99.90;;;;;;4994083;28;20416;-79
2023/03/14 04:21:06;;;;;;;25.00;12.85;;;2.80;99.90;;;;;;4993801;28;20033;-79
2023/03/14 04:23:33;;;;;;;25.65;13.82;;;2.70;99.90;;;;;;4992538;28;20058;-79
2023/03/14 04:25:59;;;;;;;23.48;11.95;;;2.70;99.90;;;;;;4992491;28;20384;-81
2023/03/14 04:28:24;;;;;;;16.80;10.60;;;2.80;99.90;;;;;;4988044;28;20035;-82
2023/03/14 04:30:50;;;;;;;13.98;7.68;;;2.80;99.90;;;;;;4972747;28;20043;-80
2023/03/14 04:33:17;;;;;;;13.27;7.07;;;2.90;99.90;;;;;;4989182;28;20547;-81
2023/03/14 04:35:43;;;;;;;13.88;7.07;;;3.00;99.90;;;;;;4974272;28;20030;-79
2023/03/14 04:38:09;;;;;;;12.57;7.38;;;3.10;99.90;;;;;;4974337;28;20050;-80
2023/03/14 04:40:37;;;;;;;13.60;7.43;;;3.10;99.90;;;;;;4989353;28;20461;-79
2023/03/14 04:43:03;;;;;;;13.40;7.40;;;3.20;99.90;;;;;;4989093;28;20023;-79
2023/03/14 04:45:29;;;;;;;11.10;6.70;;;3.20;99.90;;;;;;4972872;28;20418;-79
2023/03/14 04:47:54;;;;;;;10.60;6.80;;;3.30;99.90;;;;;;4974197;28;20075;-79
2023/03/14 04:50:20;;;;;;;10.50;5.85;;;3.30;99.90;;;;;;5003038;28;20030;-80
2023/03/14 04:52:46;;;;;;;12.05;6.53;;;3.30;99.90;;;;;;4993439;28;20538;-80
2023/03/14 04:55:11;;;;;;;9.35;7.22;;;3.30;99.90;;;;;;4982548;28;20019;-85
2023/03/14 04:57:37;;;;;;;10.13;6.95;;;3.30;99.90;;;;;;4975018;28;20018;-81
2023/03/14 05:00:07;;;;;;;14.75;7.57;;;3.30;99.90;;;;;;4976959;28;20023;-80
2023/03/14 05:02:33;;;;;;;10.68;7.22;;;3.30;99.90;;;;;;4977035;28;20023;-80
2023/03/14 05:04:59;;;;;;;13.43;6.90;;;3.30;99.90;;;;;;4976444;28;20480;-82
2023/03/14 05:07:25;;;;;;;13.93;8.45;;;3.30;99.90;;;;;;4976804;28;20026;-83
2023/03/14 05:09:50;;;;;;;15.95;9.35;;;3.30;99.90;;;;;;4976711;28;20031;-82
2023/03/14 05:12:16;;;;;;;10.23;7.40;;;3.20;99.90;;;;;;4976356;28;20388;-79
2023/03/14 05:14:42;;;;;;;11.85;7.45;;;3.20;99.90;;;;;;4975993;28;20022;-79
2023/03/14 05:17:07;;;;;;;12.98;7.93;;;3.20;99.90;;;;;;4984416;28;20037;-82
2023/03/14 05:19:33;;;;;;;12.18;7.28;;;3.20;99.90;;;;;;4982582;28;20027;-80
2023/03/14 05:21:59;;;;;;;11.57;6.88;;;3.20;99.90;;;;;;4986478;28;20423;-79
2023/03/14 05:24:24;;;;;;;11.70;6.75;;;3.20;99.90;;;;;;4986945;28;20019;-80
2023/03/14 05:26:50;;;;;;;12.95;6.70;;;3.20;99.90;;;;;;4985946;28;20483;-79
2023/03/14 05:29:15;;;;;;;11.02;6.15;;;3.20;99.90;;;;;;4985798;28;20041;-78
2023/03/14 05:31:41;;;;;;;9.15;5.97;;;3.20;99.90;;;;;;4985294;28;20031;-79
2023/03/14 05:34:06;;;;;;;9.05;6.30;;;3.20;99.90;;;;;;4986084;28;20019;-80
2023/03/14 05:36:32;;;;;;;10.32;6.22;;;3.30;99.90;;;;;;4984898;28;20023;-79
2023/03/14 05:38:57;;;;;;;8.02;5.63;;;3.20;99.90;;;;;;4983403;28;20058;-78
2023/03/14 05:41:23;;;;;;;8.30;5.68;;;3.30;99.90;;;;;;4982150;28;20034;-79
2023/03/14 05:43:49;;;;;;;9.80;5.88;;;3.30;99.90;;;;;;4986712;28;20085;-77
2023/03/14 05:46:14;;;;;;;10.57;6.43;;;3.30;99.90;;;;;;4995014;28;20030;-78
2023/03/14 05:48:40;;;;;;;13.85;7.35;;;3.40;99.90;;;;;;4980522;28;20070;-77
2023/03/14 05:51:06;;;;;;;8.98;5.72;;;3.40;99.90;;;;;;4976503;28;20416;-77
2023/03/14 05:53:31;;;;;;;8.80;6.35;;;3.50;99.90;;;;;;4984337;28;20113;-78
2023/03/14 05:55:57;;;;;;;10.05;7.28;;;3.50;99.90;;;;;;4982610;28;20022;-77
2023/03/14 05:58:23;;;;;;;22.58;11.48;;;3.60;99.90;;;;;;4984365;28;20023;-77
2023/03/14 06:00:49;;;;;;;20.67;9.30;;;3.60;99.90;;;;;;4985281;28;20022;-78
2023/03/14 06:03:15;;;;;;;15.00;8.93;;;3.60;99.90;;;;;;4993117;28;20027;-80
2023/03/14 06:05:41;;;;;;;15.98;8.80;;;3.60;99.90;;;;;;4985379;28;20038;-79
2023/03/14 06:08:06;;;;;;;14.32;9.60;;;3.70;99.90;;;;;;4979689;28;20433;-77
2023/03/14 06:10:32;;;;;;;18.10;9.75;;;3.80;99.90;;;;;;4985106;28;20436;-80
2023/03/14 06:12:58;;;;;;;42.67;19.30;;;3.80;99.90;;;;;;4988252;28;20106;-79
2023/03/14 06:15:24;;;;;;;46.42;18.88;;;3.90;99.90;;;;;;4995447;28;20053;-80
2023/03/14 06:17:49;;;;;;;46.45;20.67;;;4.00;99.90;;;;;;4994532;28;20030;-80
2023/03/14 06:20:15;;;;;;;44.83;20.70;;;4.00;99.90;;;;;;4984883;28;20018;-80
2023/03/14 06:22:41;;;;;;;41.88;19.30;;;4.10;99.90;;;;;;4982007;28;20542;-78
2023/03/14 06:25:07;;;;;;;93.18;36.65;;;4.10;99.90;;;;;;4995037;28;20107;-78
2023/03/14 06:27:33;;;;;;;136.45;50.08;;;4.20;99.90;;;;;;4995442;28;20026;-78
2023/03/14 06:29:59;;;;;;;68.35;27.85;;;4.20;99.90;;;;;;4994201;28;20491;-78
2023/03/14 06:32:25;;;;;;;54.33;22.25;;;4.30;99.90;;;;;;4994166;28;20018;-78
2023/03/14 06:34:50;;;;;;;26.42;12.07;;;4.40;99.90;;;;;;4995585;28;20374;-77
2023/03/14 06:37:16;;;;;;;48.30;24.67;;;4.50;99.90;;;;;;4994502;28;20076;-78
2023/03/14 06:39:43;;;;;;;30.40;17.23;;;4.60;99.90;;;;;;4976266;28;20382;-78
2023/03/14 06:42:09;;;;;;;30.55;13.95;;;4.60;99.90;;;;;;4974289;28;20027;-78
2023/03/14 06:44:35;;;;;;;20.52;11.23;;;4.70;99.90;;;;;;4986479;28;20019;-78
2023/03/14 06:47:01;;;;;;;25.48;12.52;;;4.80;99.90;;;;;;4973524;28;20064;-78
2023/03/14 06:49:26;;;;;;;18.77;12.25;;;4.90;99.90;;;;;;4975420;28;20516;-78
2023/03/14 06:51:52;;;;;;;22.60;12.05;;;5.10;99.90;;;;;;4975544;28;20408;-78
2023/03/14 06:54:17;;;;;;;18.25;10.32;;;5.10;99.90;;;;;;4975123;28;20121;-78
2023/03/14 06:56:43;;;;;;;23.58;10.90;;;5.30;99.90;;;;;;4974251;28;20037;-78
2023/03/14 06:59:09;;;;;;;21.15;12.82;;;5.30;99.90;;;;;;4975612;28;20027;-78
2023/03/14 07:01:34;;;;;;;24.92;12.13;;;5.40;99.90;;;;;;4974204;28;20499;-77
2023/03/14 07:04:01;;;;;;;27.08;14.75;;;5.50;99.90;;;;;;4974143;28;20051;-78
2023/03/14 07:06:29;;;;;;;35.85;24.20;;;5.60;99.90;;;;;;4974037;28;20555;-78
2023/03/14 07:08:55;;;;;;;49.63;30.25;;;5.70;99.90;;;;;;4973633;28;20090;-78
2023/03/14 07:11:20;;;;;;;62.85;35.03;;;5.80;99.90;;;;;;4981729;28;20034;-78
2023/03/14 07:13:46;;;;;;;52.38;26.95;;;5.80;99.90;;;;;;4981301;28;20109;-78
2023/03/14 07:16:12;;;;;;;46.38;23.63;;;5.90;99.90;;;;;;4978305;28;20480;-79
2023/03/14 07:18:38;;;;;;;52.10;26.15;;;6.00;99.90;;;;;;4972778;28;20061;-79
2023/03/14 07:21:08;;;;;;;45.53;23.35;;;6.00;99.90;;;;;;4974554;28;20469;-79
2023/03/14 07:23:34;;;;;;;47.75;24.92;;;6.10;99.90;;;;;;4972465;28;20070;-78
2023/03/14 07:26:03;;;;;;;50.45;32.63;;;6.30;99.90;;;;;;4973134;28;20022;-79
2023/03/14 07:28:29;;;;;;;34.92;22.05;;;6.50;99.90;;;;;;4983406;28;20050;-80
2023/03/14 07:30:55;;;;;;;27.77;18.50;;;6.60;99.90;;;;;;4980080;28;20077;-80
2023/03/14 07:33:20;;;;;;;26.02;16.63;;;6.80;99.90;;;;;;4982742;28;20022;-78
2023/03/14 07:35:49;;;;;;;30.67;15.57;;;6.90;99.90;;;;;;4992611;28;20081;-80
2023/03/14 07:38:16;;;;;;;23.05;13.45;;;7.10;99.90;;;;;;4992305;28;20018;-80
2023/03/14 07:40:41;;;;;;;20.13;9.82;;;7.30;99.90;;;;;;4992390;28;20064;-79
2023/03/14 07:43:07;;;;;;;19.33;9.63;;;7.40;99.90;;;;;;4992431;28;20449;-80
2023/03/14 07:45:32;;;;;;;18.60;8.68;;;7.50;99.90;;;;;;4991180;28;20028;-80
2023/03/14 07:47:58;;;;;;;12.88;8.18;;;7.70;99.90;;;;;;4989295;28;20124;-80
2023/03/14 07:50:25;;;;;;;14.02;7.05;;;7.90;99.90;;;;;;4990668;28;20042;-80
2023/03/14 07:52:51;;;;;;;9.57;6.63;;;8.10;99.90;;;;;;4990905;28;20022;-79
2023/03/14 07:55:16;;;;;;;13.10;6.75;;;8.30;99.90;;;;;;4990913;28;20562;-80
2023/03/14 07:57:42;;;;;;;13.05;6.90;;;8.50;97.90;;;;;;4990876;28;20050;-79
2023/03/14 08:00:08;;;;;;;17.60;6.95;;;8.70;94.20;;;;;;4993342;28;20072;-80
2023/03/14 08:02:35;;;;;;;16.23;6.22;;;8.80;91.90;;;;;;4992676;28;20384;-80
2023/03/14 08:05:01;;;;;;;14.85;6.72;;;9.10;88.30;;;;;;4993103;28;20041;-79
2023/03/14 08:07:27;;;;;;;10.70;5.82;;;9.30;86.80;;;;;;4993999;28;20027;-79
2023/03/14 08:09:53;;;;;;;17.15;7.32;;;9.60;81.60;;;;;;4973425;28;20019;-80
2023/03/14 08:12:18;;;;;;;12.30;6.75;;;9.80;80.00;;;;;;4973179;28;20102;-79
2023/03/14 08:14:44;;;;;;;11.07;6.88;;;9.90;79.20;;;;;;4974116;28;20082;-80
2023/03/14 08:17:09;;;;;;;12.55;6.53;;;10.10;78.60;;;;;;4973712;28;20027;-80
2023/03/14 08:19:35;;;;;;;10.50;6.45;;;10.30;77.00;;;;;;4973388;28;20027;-80
2023/03/14 08:22:01;;;;;;;10.73;6.32;;;10.50;74.30;;;;;;4974431;28;20436;-79
2023/03/14 08:24:26;;;;;;;12.88;7.03;;;10.70;73.70;;;;;;4974753;28;20030;-80
2023/03/14 08:26:52;;;;;;;9.98;6.03;;;10.80;72.80;;;;;;4974468;28;20041;-80
2023/03/14 08:29:17;;;;;;;10.70;6.40;;;11.00;71.10;;;;;;4973110;28;20405;-80
2023/03/14 08:31:44;;;;;;;9.52;5.50;;;11.10;70.20;;;;;;4977025;28;20101;-79
2023/03/14 08:34:09;;;;;;;10.13;6.03;;;11.20;69.30;;;;;;4977211;28;20023;-77
2023/03/14 08:36:35;;;;;;;11.35;5.40;;;11.30;70.10;;;;;;4978387;28;20381;-78
2023/03/14 08:39:03;;;;;;;8.55;5.85;;;11.40;68.50;;;;;;4977335;28;20465;-77
2023/03/14 08:41:29;;;;;;;7.97;5.15;;;11.50;69.80;;;;;;4977090;28;20057;-78
2023/03/14 08:43:54;;;;;;;9.27;5.38;;;11.70;69.00;;;;;;4976988;28;20407;-77
2023/03/14 08:46:20;;;;;;;7.65;5.38;;;11.80;69.00;;;;;;4976880;28;20081;-77
2023/03/14 08:48:46;;;;;;;10.73;4.90;;;12.00;68.80;;;;;;4978327;28;20078;-78
2023/03/14 08:51:13;;;;;;;6.82;4.45;;;12.10;66.40;;;;;;4976981;28;20038;-78
2023/03/14 08:53:40;;;;;;;9.07;3.92;;;12.30;66.50;;;;;;4976721;28;20444;-77
2023/03/14 08:56:06;;;;;;;6.63;3.97;;;12.30;65.20;;;;;;4976742;28;20389;-78
2023/03/14 08:58:32;;;;;;;7.20;4.20;;;12.30;64.60;;;;;;4976658;28;20122;-77
2023/03/14 09:00:58;;;;;;;7.80;4.38;;;12.30;64.70;;;;;;4978111;28;20038;-78
2023/03/14 09:03:24;;;;;;;7.18;3.80;;;12.30;64.40;;;;;;4977919;28;20469;-78
2023/03/14 09:05:51;;;;;;;6.47;4.07;;;12.30;63.70;;;;;;4976807;28;20033;-77
2023/03/14 09:08:16;;;;;;;9.10;4.25;;;12.30;63.40;;;;;;4976520;28;20034;-78
2023/03/14 09:10:42;;;;;;;7.55;4.00;;;12.30;64.30;;;;;;4976646;28;20035;-79
2023/03/14 09:13:07;;;;;;;12.35;3.60;;;12.30;63.50;;;;;;4976874;28;20372;-78
2023/03/14 09:15:33;;;;;;;8.18;3.95;;;12.40;64.10;;;;;;4977593;28;20507;-78
2023/03/14 09:17:59;;;;;;;5.70;3.55;;;12.40;63.40;;;;;;4976347;28;20030;-77
2023/03/14 09:20:24;;;;;;;6.97;3.30;;;12.50;63.10;;;;;;4977544;28;20477;-77
2023/03/14 09:22:50;;;;;;;7.05;3.50;;;12.60;62.70;;;;;;4977634;28;20053;-77
2023/03/14 09:25:16;;;;;;;4.07;3.67;;;12.60;62.80;;;;;;4976180;28;20042;-77
2023/03/14 09:27:41;;;;;;;7.38;3.45;;;12.60;61.90;;;;;;4977355;28;20023;-78
2023/03/14 09:30:08;;;;;;;6.05;3.78;;;12.70;63.40;;;;;;4976189;28;20065;-78
2023/03/14 09:32:33;;;;;;;6.00;3.45;;;12.60;62.80;;;;;;4975972;28;20473;-78
2023/03/14 09:34:59;;;;;;;6.45;3.83;;;12.60;62.10;;;;;;4976144;28;20033;-78
2023/03/14 09:37:25;;;;;;;7.60;3.80;;;12.50;61.70;;;;;;4975938;28;20023;-78
2023/03/14 09:39:50;;;;;;;7.20;3.80;;;12.60;62.40;;;;;;4976454;28;20082;-78
2023/03/14 09:42:25;;;;;;;6.32;3.47;;;12.60;61.90;;;;;;4976330;28;20389;-78
2023/03/14 09:44:57;;;;;;;5.45;3.67;;;12.50;62.20;;;;;;4976280;28;20046;-78
2023/03/14 09:47:23;;;;;;;4.22;3.22;;;12.50;62.60;;;;;;4976937;28;20097;-77
2023/03/14 09:49:49;;;;;;;11.18;3.85;;;12.40;62.40;;;;;;4976870;28;20033;-78
2023/03/14 09:52:26;;;;;;;8.07;3.45;;;12.30;62.10;;;;;;4975755;28;20027;-78
2023/03/14 09:54:56;;;;;;;11.27;6.28;;;12.30;62.50;;;;;;4975697;28;20019;-78
2023/03/14 09:57:25;;;;;;;38.97;16.17;;;12.30;63.50;;;;;;4976871;28;20389;-78
2023/03/14 09:59:54;;;;;;;31.20;11.40;;;12.30;62.20;;;;;;4975453;28;20118;-78
2023/03/14 10:02:25;;;;;;;8.57;3.88;;;12.40;62.50;;;;;;4976520;28;20070;-78
2023/03/14 10:04:54;;;;;;;6.43;3.58;;;12.50;62.30;;;;;;4975536;28;20034;-78
2023/03/14 10:07:32;;;;;;;18.35;7.68;;;12.70;62.80;;;;;;4975394;28;20027;-78
2023/03/14 10:09:58;;;;;;;4.22;3.10;;;12.80;61.80;;;;;;4975391;28;20030;-77
2023/03/14 10:12:36;;;;;;;31.63;14.10;;;12.80;61.40;;;;;;4975616;28;20023;-78
2023/03/14 10:15:04;;;;;;;6.65;3.70;;;12.80;61.20;;;;;;4975826;28;20030;-77
2023/03/14 10:17:39;;;;;;;13.32;6.10;;;12.80;61.50;;;;;;4975258;28;20392;-78
2023/03/14 10:20:05;;;;;;;5.90;3.45;;;12.80;62.00;;;;;;4976536;28;20022;-78
2023/03/14 10:22:32;;;;;;;8.02;3.92;;;12.70;61.50;;;;;;4976615;28;20558;-78
2023/03/14 10:25:19;;;;;;;6.13;3.35;;;12.70;62.20;;;;;;4976718;28;20049;-78
2023/03/14 10:27:44;;;;;;;10.98;5.18;;;12.70;62.50;;;;;;4976747;28;20097;-78
2023/03/14 10:30:32;;;;;;;7.65;3.72;;;12.60;62.20;;;;;;4976654;28;20031;-78
2023/03/14 10:33:09;;;;;;;10.82;6.85;;;12.50;62.40;;;;;;4976060;28;20065;-79
2023/03/14 10:35:35;;;;;;;12.40;8.30;;;12.50;63.00;;;;;;4974934;28;20110;-78
2023/03/14 10:38:03;;;;;;;13.00;7.95;;;12.60;63.20;;;;;;4975207;28;20046;-77
2023/03/14 10:40:32;;;;;;;4.63;3.25;;;12.70;63.80;;;;;;4974775;28;20019;-79
2023/03/14 10:42:59;;;;;;;6.93;3.53;;;12.70;63.20;;;;;;4974658;28;20022;-77
2023/03/14 10:45:36;;;;;;;5.53;3.40;;;12.70;62.80;;;;;;4974615;28;20031;-78
2023/03/14 10:48:14;;;;;;;6.18;4.20;;;12.70;62.60;;;;;;4975909;28;20440;-77
2023/03/14 10:51:08;;;;;;;6.15;4.20;;;12.70;63.30;;;;;;4974567;28;20042;-78
2023/03/14 10:53:46;;;;;;;5.45;3.20;;;12.80;63.70;;;;;;4989948;28;20448;-78
2023/03/14 10:56:20;;;;;;;11.02;4.03;;;12.80;63.40;;;;;;4974875;28;20054;-78
2023/03/14 10:58:52;;;;;;;8.63;3.92;;;12.80;62.90;;;;;;4974855;28;20518;-78
2023/03/14 11:01:33;;;;;;;9.48;3.88;;;12.80;63.90;;;;;;4975609;28;20034;-78
2023/03/14 11:04:25;;;;;;;7.00;3.67;;;12.80;64.00;;;;;;4974377;28;20122;-78
2023/03/14 11:07:09;;;;;;;3.75;2.85;;;12.70;63.80;;;;;;4974327;28;20413;-78
2023/03/14 11:09:54;;;;;;;8.32;3.72;;;12.70;64.00;;;;;;4975998;28;20034;-78
2023/03/14 11:12:38;;;;;;;5.28;3.38;;;12.60;64.10;;;;;;4974756;28;20027;-78
2023/03/14 11:15:31;;;;;;;4.65;3.42;;;12.50;64.20;;;;;;4975845;28;20031;-77
2023/03/14 11:18:25;;;;;;;5.05;3.50;;;12.50;65.60;;;;;;4974401;28;20543;-78
2023/03/14 11:21:08;;;;;;;;;;;12.40;65.30;;;;;;4975207;28;20034;-79
2023/03/14 11:24:05;;;;;;;7.28;3.45;;;12.30;65.50;;;;;;4982034;28;20276;-79
2023/03/14 11:26:48;;;;;;;7.55;4.18;;;12.20;65.80;;;;;;4981616;28;20081;-79
2023/03/14 11:29:25;;;;;;;8.90;3.90;;;12.20;66.10;;;;;;4982627;28;20026;-79
2023/03/14 11:31:54;;;;;;;6.97;3.75;;;12.10;66.40;;;;;;4981652;28;20114;-79
2023/03/14 11:34:30;;;;;;;10.35;3.92;;;12.00;67.20;;;;;;4973551;28;20034;-79
2023/03/14 11:37:11;;;;;;;7.90;3.60;;;12.00;67.30;;;;;;4978351;28;20062;-79
2023/03/14 11:39:44;;;;;;;7.20;4.50;;;12.00;67.20;;;;;;4974951;28;20422;-78
2023/03/14 11:42:16;;;;;;;7.38;3.22;;;12.00;66.80;;;;;;4975008;28;20436;-78
2023/03/14 11:44:45;;;;;;;5.75;3.95;;;11.90;66.80;;;;;;4973726;28;20118;-78
2023/03/14 11:47:21;;;;;;;6.50;3.88;;;12.00;67.00;;;;;;4973349;28;20047;-78
2023/03/14 11:50:20;;;;;;;5.97;4.18;;;11.90;67.40;;;;;;4973507;28;20448;-78
2023/03/14 11:53:09;;;;;;;5.53;3.97;;;11.90;67.40;;;;;;4974745;28;20035;-79
2023/03/14 11:55:36;;;;;;;6.93;5.30;;;11.90;67.70;;;;;;4974515;28;20030;-78
2023/03/14 11:58:20;;;;;;;11.38;4.88;;;11.90;67.90;;;;;;4972444;28;20041;-78
2023/03/14 12:00:48;;;;;;;7.03;4.38;;;11.90;68.20;;;;;;4971935;28;20117;-81
2023/03/14 12:03:26;;;;;;;7.25;4.70;;;11.90;68.40;;;;;;4982243;28;20031;-79
2023/03/14 12:06:07;;;;;;;8.25;3.63;;;11.80;68.20;;;;;;4991221;28;20056;-81
2023/03/14 12:08:53;;;;;;;7.22;4.60;;;11.90;68.00;;;;;;4991988;28;20089;-81
2023/03/14 12:11:56;;;;;;;7.65;4.78;;;11.90;68.10;;;;;;4973105;28;20054;-80
2023/03/14 12:14:34;;;;;;;9.45;4.68;;;11.90;68.70;;;;;;4971857;28;20026;-80
2023/03/14 12:17:24;;;;;;;7.18;5.00;;;11.80;68.30;;;;;;4980124;28;20043;-80
2023/03/14 12:20:18;;;;;;;8.73;4.43;;;11.80;68.80;;;;;;4971970;28;20113;-79
2023/03/14 12:23:05;;;;;;;4.65;3.55;;;11.80;69.60;;;;;;4972160;28;20045;-81
2023/03/14 12:25:35;;;;;;;6.72;3.30;;;11.70;71.00;;;;;;4973513;28;20026;-80
2023/03/14 12:28:19;;;;;;;6.75;3.75;;;11.70;71.90;;;;;;4973494;28;20481;-81
2023/03/14 12:30:48;;;;;;;8.63;3.92;;;11.60;72.80;;;;;;4973117;28;20117;-80
2023/03/14 12:33:28;;;;;;;5.43;3.45;;;11.50;73.30;;;;;;4971966;28;20081;-81
2023/03/14 12:36:03;;;;;;;13.35;6.60;;;11.50;73.20;;;;;;4972010;28;20018;-79
2023/03/14 12:38:35;;;;;;;10.77;5.57;;;11.40;73.10;;;;;;4980335;28;20130;-80
2023/03/14 12:41:08;;;;;;;13.77;7.00;;;11.40;72.80;;;;;;4978501;28;20027;-80
2023/03/14 12:46:29;;;;;;;10.60;5.47;;;11.40;72.90;;;;;;4976197;28;20093;-80
2023/03/14 12:49:00;;;;;;;15.48;7.70;;;11.40;72.50;;;;;;4975781;28;20082;-79
2023/03/14 12:51:45;;;;;;;29.00;11.50;;;11.30;72.40;;;;;;4977876;28;20094;-79
2023/03/14 12:54:29;;;;;;;15.43;7.30;;;11.30;72.60;;;;;;4992553;28;20037;-80